sensor_id;sensor_type;location;lat;lon;timestamp;P1;durP1;ratioP1;P2;durP2;ratioP2
56051;SDS011;41919;42.648;23.384;2022-07-05T00:00:43;2.22;;;2.03;;
56051;SDS011;41919;42.648;23.384;2022-07-05T00:03:09;2.45;;;2.08;;
56051;SDS011;41919;42.648;23.384;2022-07-05T00:05:35;2.40;;;2.20;;
56051;SDS011;41919;42.648;23.384;2022-07-05T00:08:01;5.10;;;2.00;;
56051;SDS011;41919;42.648;23.384;2022-07-05T00:10:28;3.47;;;2.30;;
56051;SDS011;41919;42.648;23.384;2022-07-05T00:12:53;2.33;;;2.13;;
56051;SDS011;41919;42.648;23.384;2022-07-05T00:15:18;3.33;;;2.00;;
56051;SDS011;41919;42.648;23.384;2022-07-05T00:17:44;6.07;;;2.45;;
56051;SDS011;41919;42.648;23.384;2022-07-05T00:20:09;4.10;;;2.38;;
56051;SDS011;41919;42.648;23.384;2022-07-05T00:22:35;4.13;;;2.50;;
56051;SDS011;41919;42.648;23.384;2022-07-05T00:25:00;3.35;;;2.20;;
56051;SDS011;41919;42.648;23.384;2022-07-05T00:27:26;3.45;;;2.17;;
56051;SDS011;41919;42.648;23.384;2022-07-05T00:29:51;2.50;;;2.00;;
56051;SDS011;41919;42.648;23.384;2022-07-05T00:32:17;3.42;;;2.03;;
56051;SDS011;41919;42.648;23.384;2022-07-05T00:34:42;4.72;;;2.00;;
56051;SDS011;41919;42.648;23.384;2022-07-05T00:37:07;2.72;;;2.15;;
56051;SDS011;41919;42.648;23.384;2022-07-05T00:39:33;4.15;;;1.83;;
56051;SDS011;41919;42.648;23.384;2022-07-05T00:41:58;3.42;;;2.05;;
56051;SDS011;41919;42.648;23.384;2022-07-05T00:44:30;1.80;;;1.70;;
56051;SDS011;41919;42.648;23.384;2022-07-05T00:46:57;2.20;;;2.00;;
56051;SDS011;41919;42.648;23.384;2022-07-05T00:49:23;4.38;;;2.15;;
56051;SDS011;41919;42.648;23.384;2022-07-05T00:51:48;3.40;;;2.10;;
56051;SDS011;41919;42.648;23.384;2022-07-05T00:54:14;3.58;;;1.75;;
56051;SDS011;41919;42.648;23.384;2022-07-05T00:56:39;2.83;;;1.98;;
56051;SDS011;41919;42.648;23.384;2022-07-05T00:59:05;2.53;;;1.70;;
56051;SDS011;41919;42.648;23.384;2022-07-05T01:01:30;1.85;;;1.63;;
56051;SDS011;41919;42.648;23.384;2022-07-05T01:03:56;1.63;;;1.52;;
56051;SDS011;41919;42.648;23.384;2022-07-05T01:06:22;1.92;;;1.60;;
56051;SDS011;41919;42.648;23.384;2022-07-05T01:08:48;2.65;;;1.38;;
56051;SDS011;41919;42.648;23.384;2022-07-05T01:11:14;1.90;;;1.45;;
56051;SDS011;41919;42.648;23.384;2022-07-05T01:13:40;8.07;;;1.77;;
56051;SDS011;41919;42.648;23.384;2022-07-05T01:16:06;2.92;;;1.67;;
56051;SDS011;41919;42.648;23.384;2022-07-05T01:18:32;2.25;;;1.98;;
56051;SDS011;41919;42.648;23.384;2022-07-05T01:20:58;1.95;;;1.80;;
56051;SDS011;41919;42.648;23.384;2022-07-05T01:23:25;1.77;;;1.63;;
56051;SDS011;41919;42.648;23.384;2022-07-05T01:25:52;3.28;;;1.58;;
56051;SDS011;41919;42.648;23.384;2022-07-05T01:28:19;2.80;;;1.80;;
56051;SDS011;41919;42.648;23.384;2022-07-05T01:30:45;3.50;;;1.80;;
56051;SDS011;41919;42.648;23.384;2022-07-05T01:33:11;3.25;;;1.70;;
56051;SDS011;41919;42.648;23.384;2022-07-05T01:35:37;2.22;;;1.80;;
56051;SDS011;41919;42.648;23.384;2022-07-05T01:38:02;2.22;;;1.75;;
56051;SDS011;41919;42.648;23.384;2022-07-05T01:40:28;5.28;;;1.90;;
56051;SDS011;41919;42.648;23.384;2022-07-05T01:42:54;2.97;;;1.65;;
56051;SDS011;41919;42.648;23.384;2022-07-05T01:45:20;2.20;;;1.80;;
56051;SDS011;41919;42.648;23.384;2022-07-05T01:48:05;2.58;;;1.90;;
56051;SDS011;41919;42.648;23.384;2022-07-05T01:50:33;1.73;;;1.50;;
56051;SDS011;41919;42.648;23.384;2022-07-05T01:53:02;2.40;;;2.00;;
56051;SDS011;41919;42.648;23.384;2022-07-05T01:55:28;1.80;;;1.70;;
56051;SDS011;41919;42.648;23.384;2022-07-05T01:57:54;2.08;;;1.75;;
56051;SDS011;41919;42.648;23.384;2022-07-05T02:00:19;2.25;;;1.60;;
56051;SDS011;41919;42.648;23.384;2022-07-05T02:02:45;6.35;;;1.90;;
56051;SDS011;41919;42.648;23.384;2022-07-05T02:05:11;2.50;;;1.55;;
56051;SDS011;41919;42.648;23.384;2022-07-05T02:07:45;3.50;;;1.90;;
56051;SDS011;41919;42.648;23.384;2022-07-05T02:10:12;2.08;;;1.80;;
56051;SDS011;41919;42.648;23.384;2022-07-05T02:12:38;2.55;;;1.73;;
56051;SDS011;41919;42.648;23.384;2022-07-05T02:15:03;3.67;;;1.65;;
56051;SDS011;41919;42.648;23.384;2022-07-05T02:17:29;3.05;;;2.20;;
56051;SDS011;41919;42.648;23.384;2022-07-05T02:19:54;2.10;;;1.90;;
56051;SDS011;41919;42.648;23.384;2022-07-05T02:22:20;4.30;;;1.85;;
56051;SDS011;41919;42.648;23.384;2022-07-05T02:24:46;1.80;;;1.70;;
56051;SDS011;41919;42.648;23.384;2022-07-05T02:27:11;4.10;;;1.92;;
56051;SDS011;41919;42.648;23.384;2022-07-05T02:29:37;2.50;;;2.03;;
56051;SDS011;41919;42.648;23.384;2022-07-05T02:32:02;2.55;;;1.70;;
56051;SDS011;41919;42.648;23.384;2022-07-05T02:34:28;3.47;;;1.70;;
56051;SDS011;41919;42.648;23.384;2022-07-05T02:36:53;2.67;;;1.50;;
56051;SDS011;41919;42.648;23.384;2022-07-05T02:39:19;1.65;;;1.55;;
56051;SDS011;41919;42.648;23.384;2022-07-05T02:41:44;1.83;;;1.73;;
56051;SDS011;41919;42.648;23.384;2022-07-05T02:44:09;3.70;;;1.80;;
56051;SDS011;41919;42.648;23.384;2022-07-05T02:46:35;3.63;;;2.05;;
56051;SDS011;41919;42.648;23.384;2022-07-05T02:49:00;2.45;;;1.80;;
56051;SDS011;41919;42.648;23.384;2022-07-05T02:51:26;2.03;;;1.83;;
56051;SDS011;41919;42.648;23.384;2022-07-05T02:53:51;2.88;;;2.00;;
56051;SDS011;41919;42.648;23.384;2022-07-05T02:56:16;2.03;;;1.83;;
56051;SDS011;41919;42.648;23.384;2022-07-05T02:58:42;4.13;;;1.98;;
56051;SDS011;41919;42.648;23.384;2022-07-05T03:01:07;2.03;;;1.85;;
56051;SDS011;41919;42.648;23.384;2022-07-05T03:03:33;2.90;;;1.65;;
56051;SDS011;41919;42.648;23.384;2022-07-05T03:05:58;2.22;;;1.73;;
56051;SDS011;41919;42.648;23.384;2022-07-05T03:08:23;3.70;;;1.80;;
56051;SDS011;41919;42.648;23.384;2022-07-05T03:10:49;3.53;;;2.05;;
56051;SDS011;41919;42.648;23.384;2022-07-05T03:13:14;3.25;;;2.10;;
56051;SDS011;41919;42.648;23.384;2022-07-05T03:15:40;1.92;;;1.80;;
56051;SDS011;41919;42.648;23.384;2022-07-05T03:18:05;2.17;;;1.80;;
56051;SDS011;41919;42.648;23.384;2022-07-05T03:20:31;4.32;;;1.90;;
56051;SDS011;41919;42.648;23.384;2022-07-05T03:22:56;2.15;;;1.88;;
56051;SDS011;41919;42.648;23.384;2022-07-05T03:25:22;8.13;;;2.20;;
56051;SDS011;41919;42.648;23.384;2022-07-05T03:27:47;4.40;;;2.40;;
56051;SDS011;41919;42.648;23.384;2022-07-05T03:30:12;4.57;;;2.22;;
56051;SDS011;41919;42.648;23.384;2022-07-05T03:32:38;3.58;;;2.47;;
56051;SDS011;41919;42.648;23.384;2022-07-05T03:35:04;3.17;;;2.25;;
56051;SDS011;41919;42.648;23.384;2022-07-05T03:37:29;3.10;;;2.55;;
56051;SDS011;41919;42.648;23.384;2022-07-05T03:39:55;4.28;;;2.78;;
56051;SDS011;41919;42.648;23.384;2022-07-05T03:42:20;11.75;;;7.70;;
56051;SDS011;41919;42.648;23.384;2022-07-05T03:44:46;7.78;;;2.72;;
56051;SDS011;41919;42.648;23.384;2022-07-05T03:47:12;8.57;;;2.70;;
56051;SDS011;41919;42.648;23.384;2022-07-05T03:49:38;3.25;;;2.15;;
56051;SDS011;41919;42.648;23.384;2022-07-05T03:52:04;2.53;;;2.30;;
56051;SDS011;41919;42.648;23.384;2022-07-05T03:54:29;2.03;;;1.85;;
56051;SDS011;41919;42.648;23.384;2022-07-05T03:56:54;2.75;;;2.05;;
56051;SDS011;41919;42.648;23.384;2022-07-05T03:59:20;2.90;;;2.10;;
56051;SDS011;41919;42.648;23.384;2022-07-05T04:01:45;3.17;;;2.30;;
56051;SDS011;41919;42.648;23.384;2022-07-05T04:04:11;2.50;;;2.30;;
56051;SDS011;41919;42.648;23.384;2022-07-05T04:06:36;3.72;;;2.90;;
56051;SDS011;41919;42.648;23.384;2022-07-05T04:09:01;2.63;;;2.40;;
56051;SDS011;41919;42.648;23.384;2022-07-05T04:11:27;2.97;;;2.30;;
56051;SDS011;41919;42.648;23.384;2022-07-05T04:13:52;3.83;;;2.30;;
56051;SDS011;41919;42.648;23.384;2022-07-05T04:16:18;3.95;;;2.20;;
56051;SDS011;41919;42.648;23.384;2022-07-05T04:18:43;3.38;;;2.30;;
56051;SDS011;41919;42.648;23.384;2022-07-05T04:21:09;6.00;;;2.03;;
56051;SDS011;41919;42.648;23.384;2022-07-05T04:23:34;3.22;;;1.85;;
56051;SDS011;41919;42.648;23.384;2022-07-05T04:26:00;2.92;;;2.40;;
56051;SDS011;41919;42.648;23.384;2022-07-05T04:28:26;5.65;;;2.35;;
56051;SDS011;41919;42.648;23.384;2022-07-05T04:30:54;3.25;;;2.22;;
56051;SDS011;41919;42.648;23.384;2022-07-05T04:33:21;6.78;;;2.55;;
56051;SDS011;41919;42.648;23.384;2022-07-05T04:35:46;3.00;;;2.08;;
56051;SDS011;41919;42.648;23.384;2022-07-05T04:38:11;2.65;;;2.45;;
56051;SDS011;41919;42.648;23.384;2022-07-05T04:40:37;5.70;;;2.50;;
56051;SDS011;41919;42.648;23.384;2022-07-05T04:43:02;6.13;;;2.88;;
56051;SDS011;41919;42.648;23.384;2022-07-05T04:45:28;3.08;;;2.78;;
56051;SDS011;41919;42.648;23.384;2022-07-05T04:47:53;7.15;;;2.65;;
56051;SDS011;41919;42.648;23.384;2022-07-05T04:50:19;3.85;;;2.80;;
56051;SDS011;41919;42.648;23.384;2022-07-05T04:52:44;4.97;;;2.85;;
56051;SDS011;41919;42.648;23.384;2022-07-05T04:55:09;6.43;;;2.80;;
56051;SDS011;41919;42.648;23.384;2022-07-05T04:57:38;5.25;;;2.42;;
56051;SDS011;41919;42.648;23.384;2022-07-05T05:00:05;5.63;;;2.78;;
56051;SDS011;41919;42.648;23.384;2022-07-05T05:02:32;4.70;;;2.67;;
56051;SDS011;41919;42.648;23.384;2022-07-05T05:04:57;4.78;;;2.60;;
56051;SDS011;41919;42.648;23.384;2022-07-05T05:07:23;6.90;;;3.10;;
56051;SDS011;41919;42.648;23.384;2022-07-05T05:09:48;5.65;;;3.10;;
56051;SDS011;41919;42.648;23.384;2022-07-05T05:12:14;6.38;;;3.25;;
56051;SDS011;41919;42.648;23.384;2022-07-05T05:14:39;5.88;;;2.90;;
56051;SDS011;41919;42.648;23.384;2022-07-05T05:17:04;3.75;;;3.35;;
56051;SDS011;41919;42.648;23.384;2022-07-05T05:19:30;5.20;;;3.13;;
56051;SDS011;41919;42.648;23.384;2022-07-05T05:21:55;7.32;;;3.17;;
56051;SDS011;41919;42.648;23.384;2022-07-05T05:24:21;3.15;;;2.95;;
56051;SDS011;41919;42.648;23.384;2022-07-05T05:26:46;4.35;;;3.10;;
56051;SDS011;41919;42.648;23.384;2022-07-05T05:29:12;5.97;;;3.03;;
56051;SDS011;41919;42.648;23.384;2022-07-05T05:31:37;7.22;;;3.80;;
56051;SDS011;41919;42.648;23.384;2022-07-05T05:34:03;4.97;;;3.13;;
56051;SDS011;41919;42.648;23.384;2022-07-05T05:36:28;4.47;;;3.22;;
56051;SDS011;41919;42.648;23.384;2022-07-05T05:38:54;7.07;;;3.40;;
56051;SDS011;41919;42.648;23.384;2022-07-05T05:41:19;5.15;;;3.17;;
56051;SDS011;41919;42.648;23.384;2022-07-05T05:43:45;7.32;;;3.17;;
56051;SDS011;41919;42.648;23.384;2022-07-05T05:46:10;6.97;;;3.40;;
56051;SDS011;41919;42.648;23.384;2022-07-05T05:48:35;12.15;;;3.38;;
56051;SDS011;41919;42.648;23.384;2022-07-05T05:51:01;5.35;;;3.28;;
56051;SDS011;41919;42.648;23.384;2022-07-05T05:53:26;7.93;;;3.60;;
56051;SDS011;41919;42.648;23.384;2022-07-05T05:55:52;5.28;;;3.63;;
56051;SDS011;41919;42.648;23.384;2022-07-05T05:58:21;8.32;;;3.28;;
56051;SDS011;41919;42.648;23.384;2022-07-05T06:00:48;4.28;;;3.40;;
56051;SDS011;41919;42.648;23.384;2022-07-05T06:03:18;7.45;;;3.38;;
56051;SDS011;41919;42.648;23.384;2022-07-05T06:05:47;7.03;;;3.70;;
56051;SDS011;41919;42.648;23.384;2022-07-05T06:08:12;8.77;;;3.58;;
56051;SDS011;41919;42.648;23.384;2022-07-05T06:10:38;4.35;;;3.38;;
56051;SDS011;41919;42.648;23.384;2022-07-05T06:13:05;5.03;;;3.33;;
56051;SDS011;41919;42.648;23.384;2022-07-05T06:15:34;5.93;;;3.47;;
56051;SDS011;41919;42.648;23.384;2022-07-05T06:18:01;6.50;;;3.40;;
56051;SDS011;41919;42.648;23.384;2022-07-05T06:20:28;6.78;;;3.55;;
56051;SDS011;41919;42.648;23.384;2022-07-05T06:22:56;7.47;;;3.30;;
56051;SDS011;41919;42.648;23.384;2022-07-05T06:25:23;7.28;;;3.28;;
56051;SDS011;41919;42.648;23.384;2022-07-05T06:27:50;7.05;;;3.35;;
56051;SDS011;41919;42.648;23.384;2022-07-05T06:30:18;6.65;;;3.40;;
56051;SDS011;41919;42.648;23.384;2022-07-05T06:32:45;10.50;;;3.35;;
56051;SDS011;41919;42.648;23.384;2022-07-05T06:35:12;5.05;;;3.17;;
56051;SDS011;41919;42.648;23.384;2022-07-05T06:37:41;8.48;;;3.40;;
56051;SDS011;41919;42.648;23.384;2022-07-05T06:40:10;5.78;;;3.67;;
56051;SDS011;41919;42.648;23.384;2022-07-05T06:42:37;8.32;;;3.33;;
56051;SDS011;41919;42.648;23.384;2022-07-05T06:45:03;10.10;;;3.60;;
56051;SDS011;41919;42.648;23.384;2022-07-05T06:47:29;6.78;;;3.83;;
56051;SDS011;41919;42.648;23.384;2022-07-05T06:49:57;5.72;;;3.42;;
56051;SDS011;41919;42.648;23.384;2022-07-05T06:52:23;6.40;;;3.92;;
56051;SDS011;41919;42.648;23.384;2022-07-05T06:54:48;5.47;;;3.78;;
56051;SDS011;41919;42.648;23.384;2022-07-05T06:57:14;5.15;;;3.70;;
56051;SDS011;41919;42.648;23.384;2022-07-05T06:59:39;9.57;;;3.80;;
56051;SDS011;41919;42.648;23.384;2022-07-05T07:02:05;9.15;;;3.90;;
56051;SDS011;41919;42.648;23.384;2022-07-05T07:04:30;8.18;;;3.42;;
56051;SDS011;41919;42.648;23.384;2022-07-05T07:06:56;6.95;;;3.92;;
56051;SDS011;41919;42.648;23.384;2022-07-05T07:09:21;7.18;;;3.75;;
56051;SDS011;41919;42.648;23.384;2022-07-05T07:11:47;9.05;;;3.25;;
56051;SDS011;41919;42.648;23.384;2022-07-05T07:14:14;8.35;;;3.83;;
56051;SDS011;41919;42.648;23.384;2022-07-05T07:16:40;8.60;;;4.00;;
56051;SDS011;41919;42.648;23.384;2022-07-05T07:19:06;6.07;;;3.58;;
56051;SDS011;41919;42.648;23.384;2022-07-05T07:21:31;3.50;;;3.10;;
56051;SDS011;41919;42.648;23.384;2022-07-05T07:23:56;7.45;;;3.75;;
56051;SDS011;41919;42.648;23.384;2022-07-05T07:26:22;6.95;;;3.70;;
56051;SDS011;41919;42.648;23.384;2022-07-05T07:28:47;7.07;;;3.65;;
56051;SDS011;41919;42.648;23.384;2022-07-05T07:31:13;6.15;;;3.97;;
56051;SDS011;41919;42.648;23.384;2022-07-05T07:33:38;7.93;;;3.78;;
56051;SDS011;41919;42.648;23.384;2022-07-05T07:36:04;9.05;;;3.70;;
56051;SDS011;41919;42.648;23.384;2022-07-05T07:38:29;6.20;;;3.65;;
56051;SDS011;41919;42.648;23.384;2022-07-05T07:40:55;5.50;;;3.97;;
56051;SDS011;41919;42.648;23.384;2022-07-05T07:43:21;7.85;;;3.53;;
56051;SDS011;41919;42.648;23.384;2022-07-05T07:45:46;7.80;;;4.35;;
56051;SDS011;41919;42.648;23.384;2022-07-05T07:48:13;6.60;;;4.18;;
56051;SDS011;41919;42.648;23.384;2022-07-05T07:50:39;9.23;;;4.95;;
56051;SDS011;41919;42.648;23.384;2022-07-05T07:53:05;9.32;;;4.45;;
56051;SDS011;41919;42.648;23.384;2022-07-05T07:55:30;5.95;;;4.25;;
56051;SDS011;41919;42.648;23.384;2022-07-05T07:57:56;7.53;;;3.92;;
56051;SDS011;41919;42.648;23.384;2022-07-05T08:00:21;10.80;;;4.40;;
56051;SDS011;41919;42.648;23.384;2022-07-05T08:02:47;17.95;;;4.32;;
56051;SDS011;41919;42.648;23.384;2022-07-05T08:05:12;6.80;;;4.20;;
56051;SDS011;41919;42.648;23.384;2022-07-05T08:07:38;6.38;;;4.55;;
56051;SDS011;41919;42.648;23.384;2022-07-05T08:10:04;4.88;;;4.30;;
56051;SDS011;41919;42.648;23.384;2022-07-05T08:12:30;7.90;;;4.20;;
56051;SDS011;41919;42.648;23.384;2022-07-05T08:14:56;10.02;;;4.40;;
56051;SDS011;41919;42.648;23.384;2022-07-05T08:17:22;5.18;;;3.92;;
56051;SDS011;41919;42.648;23.384;2022-07-05T08:19:47;5.28;;;4.00;;
56051;SDS011;41919;42.648;23.384;2022-07-05T08:22:31;7.15;;;4.03;;
56051;SDS011;41919;42.648;23.384;2022-07-05T08:24:57;6.68;;;3.92;;
56051;SDS011;41919;42.648;23.384;2022-07-05T08:27:23;5.85;;;4.05;;
56051;SDS011;41919;42.648;23.384;2022-07-05T08:29:48;11.00;;;4.03;;
56051;SDS011;41919;42.648;23.384;2022-07-05T08:32:14;6.93;;;4.68;;
56051;SDS011;41919;42.648;23.384;2022-07-05T08:34:40;9.35;;;4.07;;
56051;SDS011;41919;42.648;23.384;2022-07-05T08:37:06;6.50;;;4.00;;
56051;SDS011;41919;42.648;23.384;2022-07-05T08:39:32;6.30;;;4.32;;
56051;SDS011;41919;42.648;23.384;2022-07-05T08:41:58;4.25;;;3.67;;
56051;SDS011;41919;42.648;23.384;2022-07-05T08:44:24;11.13;;;4.13;;
56051;SDS011;41919;42.648;23.384;2022-07-05T08:46:53;6.80;;;3.70;;
56051;SDS011;41919;42.648;23.384;2022-07-05T08:49:25;7.88;;;4.10;;
56051;SDS011;41919;42.648;23.384;2022-07-05T08:51:52;6.97;;;4.03;;
56051;SDS011;41919;42.648;23.384;2022-07-05T08:54:19;6.88;;;4.10;;
56051;SDS011;41919;42.648;23.384;2022-07-05T08:56:45;9.82;;;3.63;;
56051;SDS011;41919;42.648;23.384;2022-07-05T08:59:11;6.13;;;4.60;;
56051;SDS011;41919;42.648;23.384;2022-07-05T09:01:36;5.45;;;3.80;;
56051;SDS011;41919;42.648;23.384;2022-07-05T09:04:04;5.25;;;3.97;;
56051;SDS011;41919;42.648;23.384;2022-07-05T09:06:32;4.90;;;3.85;;
56051;SDS011;41919;42.648;23.384;2022-07-05T09:09:10;7.95;;;3.72;;
56051;SDS011;41919;42.648;23.384;2022-07-05T09:11:37;7.75;;;3.97;;
56051;SDS011;41919;42.648;23.384;2022-07-05T09:14:07;5.85;;;4.07;;
56051;SDS011;41919;42.648;23.384;2022-07-05T09:16:43;5.07;;;3.78;;
56051;SDS011;41919;42.648;23.384;2022-07-05T09:19:08;10.40;;;3.88;;
56051;SDS011;41919;42.648;23.384;2022-07-05T09:21:34;6.50;;;3.97;;
56051;SDS011;41919;42.648;23.384;2022-07-05T09:24:02;10.80;;;4.47;;
56051;SDS011;41919;42.648;23.384;2022-07-05T09:26:36;5.00;;;4.07;;
56051;SDS011;41919;42.648;23.384;2022-07-05T09:29:04;6.10;;;4.15;;
56051;SDS011;41919;42.648;23.384;2022-07-05T09:31:32;7.43;;;4.25;;
56051;SDS011;41919;42.648;23.384;2022-07-05T09:36:50;9.68;;;4.22;;
56051;SDS011;41919;42.648;23.384;2022-07-05T09:39:34;9.90;;;4.45;;
56051;SDS011;41919;42.648;23.384;2022-07-05T09:44:38;7.72;;;4.97;;
56051;SDS011;41919;42.648;23.384;2022-07-05T09:47:07;8.55;;;5.20;;
56051;SDS011;41919;42.648;23.384;2022-07-05T09:49:59;10.63;;;4.40;;
56051;SDS011;41919;42.648;23.384;2022-07-05T09:52:31;9.65;;;4.78;;
56051;SDS011;41919;42.648;23.384;2022-07-05T09:55:16;7.35;;;3.90;;
56051;SDS011;41919;42.648;23.384;2022-07-05T09:57:43;6.22;;;4.53;;
56051;SDS011;41919;42.648;23.384;2022-07-05T10:05:09;7.18;;;4.00;;
56051;SDS011;41919;42.648;23.384;2022-07-05T10:07:42;6.95;;;3.83;;
56051;SDS011;41919;42.648;23.384;2022-07-05T10:10:10;7.10;;;4.28;;
56051;SDS011;41919;42.648;23.384;2022-07-05T10:12:41;4.85;;;3.92;;
56051;SDS011;41919;42.648;23.384;2022-07-05T10:15:08;7.40;;;4.25;;
56051;SDS011;41919;42.648;23.384;2022-07-05T10:17:35;4.90;;;3.75;;
56051;SDS011;41919;42.648;23.384;2022-07-05T10:20:05;4.47;;;4.13;;
56051;SDS011;41919;42.648;23.384;2022-07-05T10:22:38;5.47;;;4.80;;
56051;SDS011;41919;42.648;23.384;2022-07-05T10:25:04;6.35;;;3.97;;
56051;SDS011;41919;42.648;23.384;2022-07-05T10:27:30;8.82;;;4.30;;
56051;SDS011;41919;42.648;23.384;2022-07-05T10:29:57;6.93;;;4.20;;
56051;SDS011;41919;42.648;23.384;2022-07-05T10:32:24;5.20;;;4.70;;
56051;SDS011;41919;42.648;23.384;2022-07-05T10:34:52;4.80;;;4.30;;
56051;SDS011;41919;42.648;23.384;2022-07-05T10:37:18;5.72;;;4.72;;
56051;SDS011;41919;42.648;23.384;2022-07-05T10:39:45;5.07;;;4.57;;
56051;SDS011;41919;42.648;23.384;2022-07-05T10:42:10;5.03;;;4.50;;
56051;SDS011;41919;42.648;23.384;2022-07-05T10:44:36;5.15;;;4.40;;
56051;SDS011;41919;42.648;23.384;2022-07-05T10:47:09;5.00;;;4.53;;
56051;SDS011;41919;42.648;23.384;2022-07-05T10:49:36;4.78;;;4.35;;
56051;SDS011;41919;42.648;23.384;2022-07-05T10:52:03;5.97;;;4.28;;
56051;SDS011;41919;42.648;23.384;2022-07-05T10:54:29;5.68;;;4.85;;
56051;SDS011;41919;42.648;23.384;2022-07-05T11:02:36;6.15;;;4.20;;
56051;SDS011;41919;42.648;23.384;2022-07-05T11:05:02;4.13;;;3.80;;
56051;SDS011;41919;42.648;23.384;2022-07-05T11:10:22;5.72;;;4.57;;
56051;SDS011;41919;42.648;23.384;2022-07-05T11:12:48;4.90;;;4.47;;
56051;SDS011;41919;42.648;23.384;2022-07-05T11:15:13;4.82;;;4.30;;
56051;SDS011;41919;42.648;23.384;2022-07-05T11:17:39;7.72;;;4.80;;
56051;SDS011;41919;42.648;23.384;2022-07-05T11:20:09;5.28;;;4.60;;
56051;SDS011;41919;42.648;23.384;2022-07-05T11:23:00;10.50;;;5.13;;
56051;SDS011;41919;42.648;23.384;2022-07-05T11:25:29;10.43;;;4.85;;
56051;SDS011;41919;42.648;23.384;2022-07-05T11:27:59;7.93;;;4.80;;
56051;SDS011;41919;42.648;23.384;2022-07-05T11:30:30;5.85;;;4.43;;
56051;SDS011;41919;42.648;23.384;2022-07-05T11:35:53;4.93;;;4.47;;
56051;SDS011;41919;42.648;23.384;2022-07-05T11:38:18;7.22;;;4.63;;
56051;SDS011;41919;42.648;23.384;2022-07-05T11:40:44;8.35;;;4.53;;
56051;SDS011;41919;42.648;23.384;2022-07-05T11:43:09;5.72;;;4.70;;
56051;SDS011;41919;42.648;23.384;2022-07-05T11:45:36;7.40;;;4.35;;
56051;SDS011;41919;42.648;23.384;2022-07-05T11:48:03;6.95;;;4.78;;
56051;SDS011;41919;42.648;23.384;2022-07-05T11:50:31;5.53;;;4.20;;
56051;SDS011;41919;42.648;23.384;2022-07-05T11:52:59;3.88;;;3.58;;
56051;SDS011;41919;42.648;23.384;2022-07-05T11:55:25;7.78;;;4.60;;
56051;SDS011;41919;42.648;23.384;2022-07-05T11:57:52;8.30;;;4.88;;
56051;SDS011;41919;42.648;23.384;2022-07-05T12:00:26;4.53;;;4.00;;
56051;SDS011;41919;42.648;23.384;2022-07-05T12:02:53;4.50;;;3.80;;
56051;SDS011;41919;42.648;23.384;2022-07-05T12:05:18;5.63;;;3.95;;
56051;SDS011;41919;42.648;23.384;2022-07-05T12:07:48;5.18;;;4.70;;
56051;SDS011;41919;42.648;23.384;2022-07-05T12:10:17;5.63;;;4.65;;
56051;SDS011;41919;42.648;23.384;2022-07-05T12:13:03;5.35;;;4.63;;
56051;SDS011;41919;42.648;23.384;2022-07-05T12:15:33;5.00;;;4.60;;
56051;SDS011;41919;42.648;23.384;2022-07-05T12:18:00;6.20;;;4.70;;
56051;SDS011;41919;42.648;23.384;2022-07-05T12:20:30;5.32;;;4.53;;
56051;SDS011;41919;42.648;23.384;2022-07-05T12:22:57;5.72;;;4.40;;
56051;SDS011;41919;42.648;23.384;2022-07-05T12:25:24;5.80;;;4.57;;
56051;SDS011;41919;42.648;23.384;2022-07-05T12:27:50;5.00;;;4.60;;
56051;SDS011;41919;42.648;23.384;2022-07-05T12:30:18;5.40;;;4.80;;
56051;SDS011;41919;42.648;23.384;2022-07-05T12:35:30;6.75;;;3.92;;
56051;SDS011;41919;42.648;23.384;2022-07-05T12:37:56;6.63;;;4.55;;
56051;SDS011;41919;42.648;23.384;2022-07-05T12:40:26;6.72;;;4.40;;
56051;SDS011;41919;42.648;23.384;2022-07-05T12:43:02;4.70;;;4.30;;
56051;SDS011;41919;42.648;23.384;2022-07-05T12:45:32;6.47;;;4.30;;
56051;SDS011;41919;42.648;23.384;2022-07-05T12:47:59;5.50;;;4.60;;
56051;SDS011;41919;42.648;23.384;2022-07-05T12:50:27;10.00;;;4.55;;
56051;SDS011;41919;42.648;23.384;2022-07-05T12:53:04;7.47;;;4.38;;
56051;SDS011;41919;42.648;23.384;2022-07-05T12:55:59;7.00;;;4.68;;
56051;SDS011;41919;42.648;23.384;2022-07-05T12:58:46;4.90;;;4.50;;
56051;SDS011;41919;42.648;23.384;2022-07-05T13:01:22;7.05;;;5.00;;
56051;SDS011;41919;42.648;23.384;2022-07-05T13:06:54;5.90;;;4.28;;
56051;SDS011;41919;42.648;23.384;2022-07-05T13:12:04;4.50;;;4.10;;
56051;SDS011;41919;42.648;23.384;2022-07-05T13:14:52;7.45;;;4.20;;
56051;SDS011;41919;42.648;23.384;2022-07-05T13:17:20;5.13;;;4.60;;
56051;SDS011;41919;42.648;23.384;2022-07-05T13:19:47;5.43;;;4.90;;
56051;SDS011;41919;42.648;23.384;2022-07-05T13:22:15;5.20;;;4.70;;
56051;SDS011;41919;42.648;23.384;2022-07-05T13:24:41;7.05;;;5.15;;
56051;SDS011;41919;42.648;23.384;2022-07-05T13:27:07;6.10;;;4.75;;
56051;SDS011;41919;42.648;23.384;2022-07-05T13:29:36;4.47;;;4.07;;
56051;SDS011;41919;42.648;23.384;2022-07-05T13:32:02;7.38;;;4.13;;
56051;SDS011;41919;42.648;23.384;2022-07-05T13:34:28;5.57;;;4.50;;
56051;SDS011;41919;42.648;23.384;2022-07-05T13:36:55;5.90;;;4.68;;
56051;SDS011;41919;42.648;23.384;2022-07-05T13:39:21;5.82;;;4.43;;
56051;SDS011;41919;42.648;23.384;2022-07-05T13:41:47;7.40;;;4.65;;
56051;SDS011;41919;42.648;23.384;2022-07-05T13:44:14;6.35;;;5.05;;
56051;SDS011;41919;42.648;23.384;2022-07-05T13:46:39;4.57;;;4.15;;
56051;SDS011;41919;42.648;23.384;2022-07-05T13:49:05;4.80;;;4.40;;
56051;SDS011;41919;42.648;23.384;2022-07-05T13:51:30;5.57;;;4.60;;
56051;SDS011;41919;42.648;23.384;2022-07-05T13:53:56;4.60;;;4.05;;
56051;SDS011;41919;42.648;23.384;2022-07-05T13:56:21;4.47;;;3.97;;
56051;SDS011;41919;42.648;23.384;2022-07-05T13:58:47;4.90;;;4.10;;
56051;SDS011;41919;42.648;23.384;2022-07-05T14:01:13;7.88;;;4.15;;
56051;SDS011;41919;42.648;23.384;2022-07-05T14:03:39;4.30;;;3.90;;
56051;SDS011;41919;42.648;23.384;2022-07-05T14:06:05;4.90;;;4.50;;
56051;SDS011;41919;42.648;23.384;2022-07-05T14:08:31;8.95;;;4.60;;
56051;SDS011;41919;42.648;23.384;2022-07-05T14:10:56;5.43;;;4.32;;
56051;SDS011;41919;42.648;23.384;2022-07-05T14:13:24;5.88;;;4.10;;
56051;SDS011;41919;42.648;23.384;2022-07-05T14:15:50;6.80;;;4.25;;
56051;SDS011;41919;42.648;23.384;2022-07-05T14:18:17;5.05;;;4.60;;
56051;SDS011;41919;42.648;23.384;2022-07-05T14:20:45;7.10;;;4.90;;
56051;SDS011;41919;42.648;23.384;2022-07-05T14:23:12;4.68;;;3.97;;
56051;SDS011;41919;42.648;23.384;2022-07-05T14:25:42;4.90;;;4.40;;
56051;SDS011;41919;42.648;23.384;2022-07-05T14:28:08;5.35;;;4.20;;
56051;SDS011;41919;42.648;23.384;2022-07-05T14:30:37;5.95;;;4.80;;
56051;SDS011;41919;42.648;23.384;2022-07-05T14:33:08;6.65;;;4.35;;
56051;SDS011;41919;42.648;23.384;2022-07-05T14:35:34;6.25;;;4.20;;
56051;SDS011;41919;42.648;23.384;2022-07-05T14:38:00;6.47;;;4.20;;
56051;SDS011;41919;42.648;23.384;2022-07-05T14:40:26;4.47;;;4.07;;
56051;SDS011;41919;42.648;23.384;2022-07-05T14:42:52;4.80;;;4.20;;
56051;SDS011;41919;42.648;23.384;2022-07-05T14:45:20;4.70;;;4.32;;
56051;SDS011;41919;42.648;23.384;2022-07-05T14:47:46;4.43;;;3.92;;
56051;SDS011;41919;42.648;23.384;2022-07-05T14:50:12;6.28;;;5.05;;
56051;SDS011;41919;42.648;23.384;2022-07-05T14:52:39;6.75;;;4.30;;
56051;SDS011;41919;42.648;23.384;2022-07-05T14:55:05;5.05;;;4.60;;
56051;SDS011;41919;42.648;23.384;2022-07-05T14:57:30;4.72;;;4.07;;
56051;SDS011;41919;42.648;23.384;2022-07-05T14:59:56;6.60;;;4.38;;
56051;SDS011;41919;42.648;23.384;2022-07-05T15:02:21;5.05;;;4.55;;